Meteo Giornale » Osservazioni meteo Gran Bretagna » Newcastle

ore: 00:50 - Osservazioni Meteo Newcastle
Lat. 55° 2' N Lon. 1° 42' W Alt. 81 metri s.l.m.

nuvoloso Europe/London

9 °C

Nuvoloso

Temp. 24 Ore

9 °C

17 °C

Ovest/Sud-Ovest

18.5 Km/h

Dew point 6 °C

Umidità 81 %

Visibilità  10 Km

Il sole sorge alle ore 05:41

Il sole tramonta alle ore 20:29

Data e Ora Cielo e Fenomeni T °C DP °C Um. % Pres. hPa Vis. km Vento km/h
Oggi h: 00:50 nuvoloso Nuvoloso 9 6 81 1005 10 O/SO 18.5
Oggi h: 00:20 coperto_pioggia Pioggia Debole 9 7 87 1005 10 O 20.3
Ieri h: 23:50 poco_nuvoloso Poco Nuvoloso 9 5 75 1005 10 SO 13
Ieri h: 23:20 poco_nuvoloso Poco Nuvoloso 9 5 75 1005 10 O/SO 11.1
Ieri h: 22:50 sereno Sereno 9 5 75 1005 10 SO 13
Ieri h: 22:20 nuvoloso Nuvoloso 9 5 75 1005 10 SO 13
Ieri h: 21:50 nuvoloso Nuvoloso 9 5 75 1005 10 SO 14.8
Ieri h: 21:20 sereno Sereno 10 4 66 1005 10 SO 14.8
Ieri h: 20:50 sereno Sereno 10 4 66 1005 10 O/SO 16.7
Ieri h: 20:20 sereno Sereno 10 4 66 1005 10 SO 14.8
Ieri h: 19:50 poco_nuvoloso Poco Nuvoloso 11 4 61 1005 10 O/SO 16.7
Ieri h: 19:20 poco_nuvoloso Poco Nuvoloso 12 4 57 1004 10 O/SO 18.5
Ieri h: 18:50 poco_nuvoloso Poco Nuvoloso 13 4 54 1004 10 O/SO 18.5
Ieri h: 18:20 poco_nuvoloso Poco Nuvoloso 12 5 62 1004 10 O/SO 22.2
Ieri h: 17:20 nuvoloso Nuvoloso 13 6 62 1004 10 O/SO 20.3
Ieri h: 16:50 nuvoloso Nuvoloso 14 6 58 1004 10 O/SO 20.3
Ieri h: 16:20 molto_nuvoloso Molto Nuvoloso 13 7 66 1004 10 O/SO 22.2
Ieri h: 15:50 nuvoloso Nuvoloso 14 7 62 1004 10 O/SO 24
Ieri h: 15:20 nuvoloso Nuvoloso 14 7 62 1004 10 O/SO 27.8
Ieri h: 14:50 nuvoloso Nuvoloso 13 7 66 1004 10 O/SO 22.2
Ieri h: 14:20 nuvoloso Nuvoloso 14 6 58 1004 10 O 25.9
Ieri h: 13:50 poco_nuvoloso Poco Nuvoloso 14 6 58 1004 10 O/SO 20.3
Ieri h: 13:20 poco_nuvoloso Poco Nuvoloso 12 6 66 1004 10 O/SO 20.3
Ieri h: 12:50 molto_nuvoloso Molto Nuvoloso 12 4 57 1004 10 SO 20.3
Ieri h: 12:20 coperto_pioggia Pioggia Debole 11 4 61 1004 10 S/SO 16.7
Ieri h: 11:50 coperto_pioggia Pioggia Debole 11 5 66 1005 7 SO 13
Ieri h: 11:20 coperto_pioggia Pioggia Debole 12 3 54 1005 10 SO 16.7
Ieri h: 10:50 molto_nuvoloso Molto Nuvoloso 13 5 58 1005 10 SO 16.7
Ieri h: 10:20 molto_nuvoloso Molto Nuvoloso 14 8 67 1005 10 SO 22.2
Ieri h: 09:50 molto_nuvoloso Molto Nuvoloso 15 10 72 1004 6 O/SO 18.5
Ieri h: 09:20 molto_nuvoloso Molto Nuvoloso 15 11 76 1004 8 O/SO 16.7
Ieri h: 08:50 poco_nuvoloso Poco Nuvoloso 17 12 72 1004 10 S/SO 11.1
Ieri h: 08:20 sereno Sereno 16 12 77 1004 10 S 9.3
Ieri h: 07:50 sereno Sereno 15 12 82 1004 8 S/SO 9.3
Ieri h: 07:20 sereno Sereno 14 11 82 1005 8 S/SO 9.3
Ieri h: 06:50 poco_nuvoloso Poco Nuvoloso 13 11 87 1005 8 S/SO 9.3
Ieri h: 06:20 poco_nuvoloso Poco Nuvoloso 13 11 87 1005 8 N 3.7
Ieri h: 05:20 coperto_pioggia Pioggia Debole 13 12 93 1006 8 S/SE 7.4
Ieri h: 04:50 poco_nuvoloso Poco Nuvoloso 11 10 93 1006 10 N 3.7
Ieri h: 03:50 poco_nuvoloso Poco Nuvoloso 12 11 93 1007 10 N 3.7
Ieri h: 02:50 poco_nuvoloso Poco Nuvoloso 12 11 93 1008 10 N 5.5
Ieri h: 01:50 nuvoloso Nuvoloso 13 11 87 1009 10 S/SE 11.1